createdAt,value
2023-01-11T00:02:05.754Z,53.97
2023-01-11T00:04:34.795Z,52.67
2023-01-11T00:07:03.869Z,56.07
2023-01-11T00:09:34.996Z,44.77
2023-01-11T00:12:04.514Z,40.80
2023-01-11T00:14:33.509Z,36.43
2023-01-11T00:17:02.530Z,33.97
2023-01-11T00:19:31.545Z,31.90
2023-01-11T00:22:00.569Z,37.87
2023-01-11T00:24:29.677Z,32.13
2023-01-11T00:27:00.231Z,29.17
2023-01-11T00:29:29.355Z,25.27
2023-01-11T00:31:58.510Z,22.17
2023-01-11T00:34:27.871Z,23.57
2023-01-11T00:36:56.863Z,22.20
2023-01-11T00:39:25.795Z,24.17
2023-01-11T00:42:12.214Z,27.37
2023-01-11T00:45:00.143Z,25.57
2023-01-11T00:47:46.447Z,28.20
2023-01-11T00:50:37.961Z,27.43
2023-01-11T00:53:07.998Z,27.37
2023-01-11T00:55:37.353Z,29.77
2023-01-11T00:58:06.741Z,37.20
2023-01-11T01:00:37.490Z,38.67
2023-01-11T01:03:06.486Z,38.83
2023-01-11T01:05:35.485Z,33.53
2023-01-11T01:08:04.424Z,48.53
2023-01-11T01:10:33.334Z,56.90
2023-01-11T01:13:19.625Z,57.17
2023-01-11T01:15:50.206Z,55.07
2023-01-11T01:18:20.730Z,54.10
2023-01-11T01:20:52.350Z,52.53
2023-01-11T01:23:21.532Z,51.57
2023-01-11T01:25:50.589Z,49.40
2023-01-11T01:28:22.403Z,51.67
2023-01-11T01:30:55.910Z,46.60
2023-01-11T01:33:25.472Z,45.13
2023-01-11T01:35:54.405Z,51.43
2023-01-11T01:38:23.681Z,70.03
2023-01-11T01:40:52.734Z,51.37
2023-01-11T01:43:21.728Z,54.07
2023-01-11T01:45:53.176Z,54.70
2023-01-11T01:48:26.873Z,54.20
2023-01-11T01:51:00.002Z,54.53
2023-01-11T01:53:35.917Z,52.73
2023-01-11T01:56:09.162Z,53.60
2023-01-11T01:58:43.340Z,58.40
2023-01-11T02:01:31.411Z,62.43
2023-01-11T02:04:03.331Z,61.20
2023-01-11T02:06:52.299Z,61.43
2023-01-11T02:09:28.008Z,59.43
2023-01-11T02:11:59.002Z,56.63
2023-01-11T02:14:29.633Z,58.53
2023-01-11T02:16:58.846Z,56.67
2023-01-11T02:19:45.210Z,57.97
2023-01-11T02:22:45.526Z,57.70
2023-01-11T02:25:47.060Z,56.97
2023-01-11T02:28:22.603Z,55.00
2023-01-11T02:31:00.784Z,54.07
2023-01-11T02:33:39.275Z,58.10
2023-01-11T02:36:16.593Z,202.87
2023-01-11T02:38:52.570Z,260.53
2023-01-11T02:41:29.019Z,101.67
2023-01-11T02:44:20.882Z,76.90
2023-01-11T02:46:54.322Z,84.80
2023-01-11T02:49:33.338Z,78.20
2023-01-11T02:52:09.551Z,76.90
2023-01-11T02:54:39.521Z,77.17
2023-01-11T02:57:10.151Z,73.70
2023-01-11T02:59:42.341Z,60.67
2023-01-11T03:02:14.385Z,59.87
2023-01-11T03:04:43.554Z,58.03
2023-01-11T03:07:36.795Z,59.87
2023-01-11T03:10:18.746Z,59.90
2023-01-11T03:12:57.911Z,60.63
2023-01-11T03:16:00.545Z,54.80
2023-01-11T03:18:41.662Z,45.57
2023-01-11T03:21:26.146Z,41.03
2023-01-11T03:24:05.871Z,38.47
2023-01-11T03:26:42.856Z,34.57
2023-01-11T03:29:19.507Z,32.73
2023-01-11T03:31:54.665Z,32.47
2023-01-11T03:34:32.986Z,33.03
2023-01-11T03:37:07.575Z,34.73
2023-01-11T03:39:42.114Z,100.40
2023-01-11T03:42:31.150Z,83.20
2023-01-11T03:45:04.222Z,86.00
2023-01-11T03:47:36.505Z,38.77
2023-01-11T03:50:08.219Z,28.43
2023-01-11T03:52:41.836Z,25.47
2023-01-11T03:55:13.797Z,27.27
2023-01-11T03:57:51.567Z,27.23
2023-01-11T04:00:22.017Z,26.40
2023-01-11T04:02:54.135Z,25.00
2023-01-11T04:05:23.642Z,24.80
2023-01-11T04:07:52.796Z,50.43
2023-01-11T04:10:21.939Z,101.33
2023-01-11T04:12:51.173Z,101.90
2023-01-11T04:15:20.229Z,33.33
2023-01-11T04:17:49.340Z,24.07
2023-01-11T04:20:19.994Z,24.10
2023-01-11T04:22:49.173Z,111.10
2023-01-11T04:25:18.257Z,37.43
2023-01-11T04:27:47.202Z,31.30
2023-01-11T04:30:16.627Z,41.27
2023-01-11T04:32:45.773Z,33.23
2023-01-11T04:35:14.941Z,58.67
2023-01-11T04:37:45.401Z,102.97
2023-01-11T04:40:14.797Z,37.23
2023-01-11T04:42:42.768Z,30.30
2023-01-11T04:45:12.243Z,28.67
2023-01-11T04:47:41.253Z,34.07
2023-01-11T04:50:11.983Z,48.77
2023-01-11T04:52:42.008Z,55.60
2023-01-11T04:55:12.649Z,63.23
2023-01-11T04:57:41.832Z,109.07
2023-01-11T05:00:12.694Z,68.17
2023-01-11T05:02:42.090Z,55.47
2023-01-11T05:05:12.990Z,29.20
2023-01-11T05:07:42.167Z,29.97
2023-01-11T05:10:13.437Z,27.83
2023-01-11T05:12:42.565Z,26.80
2023-01-11T05:15:12.073Z,27.57
2023-01-11T05:17:41.054Z,23.60
2023-01-11T05:20:12.092Z,26.90
2023-01-11T05:22:41.178Z,27.80
2023-01-11T05:25:12.369Z,29.10
2023-01-11T05:27:41.427Z,25.63
2023-01-11T05:30:12.148Z,28.23
2023-01-11T05:32:41.177Z,28.73
2023-01-11T05:35:11.463Z,33.40
2023-01-11T05:37:40.457Z,28.33
2023-01-11T05:40:12.868Z,30.93
2023-01-11T05:42:42.060Z,33.47
2023-01-11T05:45:28.925Z,33.97
2023-01-11T05:47:58.014Z,33.67
2023-01-11T05:50:27.280Z,28.83
2023-01-11T05:52:56.191Z,28.13
2023-01-11T05:55:26.704Z,29.10
2023-01-11T05:57:56.221Z,31.20
2023-01-11T06:00:43.823Z,30.73
2023-01-11T06:03:16.218Z,34.70
2023-01-11T06:05:46.166Z,40.80
2023-01-11T06:08:16.104Z,41.47
2023-01-11T06:10:53.022Z,44.10
2023-01-11T06:13:28.860Z,46.17
2023-01-11T06:16:04.053Z,46.47
2023-01-11T06:18:53.558Z,40.93
2023-01-11T06:21:24.251Z,36.20
2023-01-11T06:23:53.417Z,35.83
2023-01-11T06:26:24.526Z,37.87
2023-01-11T06:28:53.914Z,33.07
2023-01-11T06:31:23.236Z,33.13
2023-01-11T06:33:52.427Z,46.17
2023-01-11T06:36:21.411Z,55.67
2023-01-11T06:38:50.724Z,64.17
2023-01-11T06:41:20.010Z,80.30
2023-01-11T06:43:52.234Z,78.10
2023-01-11T06:46:21.969Z,81.77
2023-01-11T06:48:51.612Z,78.97
2023-01-11T06:51:20.892Z,77.97
2023-01-11T06:53:50.089Z,59.00
2023-01-11T06:56:20.707Z,52.93
2023-01-11T06:58:52.414Z,56.17
2023-01-11T07:01:22.168Z,53.67
2023-01-11T07:03:51.623Z,58.57
2023-01-11T07:06:20.574Z,77.20
2023-01-11T07:08:49.648Z,63.83
2023-01-11T07:11:18.787Z,52.93
2023-01-11T07:13:47.790Z,52.40
2023-01-11T07:16:19.202Z,51.27
2023-01-11T07:18:48.217Z,45.57
2023-01-11T07:21:17.332Z,68.77
2023-01-11T07:23:46.123Z,52.00
2023-01-11T07:26:17.446Z,51.17
2023-01-11T07:28:46.569Z,72.77
2023-01-11T07:31:15.657Z,119.23
2023-01-11T07:33:46.251Z,101.60
2023-01-11T07:36:15.276Z,84.97
2023-01-11T07:38:44.378Z,69.70
2023-01-11T07:41:27.234Z,72.83
2023-01-11T07:43:56.298Z,64.67
2023-01-11T07:46:25.274Z,67.97
2023-01-11T07:48:56.081Z,96.57
2023-01-11T07:51:29.823Z,89.00
2023-01-11T07:54:02.672Z,87.80
2023-01-11T07:56:32.636Z,90.37
2023-01-11T07:59:01.683Z,116.50
2023-01-11T08:01:30.941Z,118.17
2023-01-11T08:04:01.453Z,134.73
2023-01-11T08:06:30.501Z,140.73
2023-01-11T08:08:59.522Z,138.23
2023-01-11T08:11:45.953Z,145.53
2023-01-11T08:14:32.403Z,168.60
2023-01-11T08:17:01.558Z,184.10
2023-01-11T08:19:32.229Z,210.73
2023-01-11T08:22:01.533Z,182.90
2023-01-11T08:24:30.486Z,158.50
2023-01-11T08:26:59.413Z,167.80
2023-01-11T08:29:29.021Z,185.10
2023-01-11T08:31:59.414Z,206.40
2023-01-11T08:34:29.431Z,208.83
2023-01-11T08:37:02.248Z,262.27
2023-01-11T08:39:31.663Z,278.07
2023-01-11T08:42:01.009Z,292.03
2023-01-11T08:44:34.100Z,291.50
2023-01-11T08:47:03.786Z,301.40
2023-01-11T08:49:32.847Z,123.23
2023-01-11T08:52:03.221Z,111.07
2023-01-11T08:54:51.016Z,100.73
2023-01-11T08:57:19.987Z,94.13
2023-01-11T08:59:49.079Z,90.37
2023-01-11T09:02:18.080Z,88.07
2023-01-11T09:04:46.990Z,86.17
2023-01-11T09:07:17.615Z,95.13
2023-01-11T09:09:46.686Z,98.13
2023-01-11T09:12:15.781Z,94.53
2023-01-11T09:14:44.875Z,89.53
2023-01-11T09:17:13.878Z,88.37
2023-01-11T09:19:42.755Z,92.70
2023-01-11T09:22:11.899Z,86.17
2023-01-11T09:24:42.585Z,90.80
2023-01-11T09:27:12.192Z,85.27
2023-01-11T09:29:59.525Z,91.13
2023-01-11T09:32:28.552Z,72.93
2023-01-11T09:34:59.947Z,75.43
2023-01-11T09:37:29.069Z,101.60
2023-01-11T09:39:59.912Z,120.90
2023-01-11T09:42:35.758Z,126.67
2023-01-11T09:45:14.762Z,138.63
2023-01-11T09:47:49.746Z,96.80
2023-01-11T09:50:23.654Z,93.77
2023-01-11T09:52:55.357Z,88.70
2023-01-11T09:55:34.048Z,78.13
2023-01-11T09:58:18.687Z,93.83
2023-01-11T10:00:55.706Z,63.70
2023-01-11T10:03:58.561Z,64.20
2023-01-11T10:06:33.598Z,60.20
2023-01-11T10:18:26.726Z,55.73
2023-01-11T10:18:46.110Z,62.00
2023-01-11T10:21:19.875Z,99.40
2023-01-11T10:23:53.998Z,55.93
2023-01-11T10:26:29.435Z,65.47
2023-01-11T10:29:22.227Z,105.03
2023-01-11T10:32:13.747Z,104.20
2023-01-11T10:35:14.574Z,102.43
2023-01-11T10:38:02.582Z,113.07
2023-01-11T10:40:59.113Z,115.53
2023-01-11T10:43:29.990Z,457.63
2023-01-11T10:46:04.234Z,193.70
2023-01-11T10:48:37.415Z,106.83
2023-01-11T10:51:14.551Z,97.70
2023-01-11T10:54:00.157Z,91.23
2023-01-11T10:56:42.740Z,77.10
2023-01-11T10:59:51.028Z,58.90
2023-01-11T11:02:39.507Z,59.93
2023-01-11T11:05:20.834Z,80.10
2023-01-11T11:07:56.295Z,78.30
2023-01-11T11:10:31.521Z,64.83
2023-01-11T11:13:10.496Z,48.37
2023-01-11T11:16:05.244Z,44.87
2023-01-11T11:18:36.604Z,40.80
2023-01-11T11:21:08.554Z,44.33
2023-01-11T11:23:38.588Z,43.97
2023-01-11T11:26:09.175Z,46.90
2023-01-11T11:28:38.393Z,47.03
2023-01-11T11:31:13.803Z,49.47
2023-01-11T11:33:48.392Z,59.73
2023-01-11T11:36:44.025Z,71.47
2023-01-11T11:39:20.993Z,53.80
2023-01-11T11:41:52.073Z,48.57
2023-01-11T11:44:24.631Z,45.27
2023-01-11T11:47:01.875Z,39.40
2023-01-11T11:49:33.437Z,34.67
2023-01-11T11:52:06.365Z,29.50
2023-01-11T11:54:39.244Z,31.17
2023-01-11T11:57:25.142Z,31.97
2023-01-11T12:00:05.192Z,31.67
2023-01-11T12:02:35.999Z,32.17
2023-01-11T12:05:11.273Z,32.20
2023-01-11T12:07:54.838Z,32.43
2023-01-11T12:10:26.416Z,33.43
2023-01-11T12:12:58.131Z,36.73
2023-01-11T12:15:29.128Z,37.00
2023-01-11T12:18:15.550Z,37.27
2023-01-11T12:20:47.483Z,44.37
2023-01-11T12:23:35.077Z,50.80
2023-01-11T12:26:22.749Z,58.17
2023-01-11T12:29:41.765Z,73.57
2023-01-11T12:32:27.445Z,87.43
2023-01-11T12:35:32.064Z,89.50
2023-01-11T12:38:33.204Z,105.63
2023-01-11T12:41:19.308Z,109.87
2023-01-11T12:44:01.199Z,115.93
2023-01-11T12:46:44.711Z,124.00
2023-01-11T12:49:24.525Z,119.17
2023-01-11T12:52:12.745Z,114.40
2023-01-11T12:55:02.030Z,97.33
2023-01-11T12:57:37.189Z,92.10
2023-01-11T13:00:33.134Z,89.60
2023-01-11T13:03:26.831Z,90.63
2023-01-11T13:06:03.484Z,79.63
2023-01-11T13:08:46.492Z,83.00
2023-01-11T13:11:36.740Z,87.40
2023-01-11T13:14:23.444Z,94.63
2023-01-11T13:17:02.062Z,95.37
2023-01-11T13:19:58.293Z,105.87
2023-01-11T13:22:32.740Z,92.27
2023-01-11T13:25:04.426Z,130.37
2023-01-11T13:27:56.141Z,121.73
2023-01-11T13:30:25.919Z,108.63
2023-01-11T13:32:58.216Z,119.77
2023-01-11T13:35:38.184Z,138.30
2023-01-11T13:38:16.971Z,122.97
2023-01-11T13:40:50.041Z,124.80
2023-01-11T13:43:27.940Z,122.97
2023-01-11T13:46:03.893Z,113.37
2023-01-11T13:48:39.220Z,115.73
2023-01-11T13:51:21.104Z,101.70
2023-01-11T13:54:15.608Z,98.93
2023-01-11T13:56:49.814Z,94.90
2023-01-11T13:59:28.115Z,92.07
2023-01-11T14:02:23.612Z,95.40
2023-01-11T14:05:00.191Z,94.43
2023-01-11T14:07:41.682Z,101.00
2023-01-11T14:10:31.725Z,91.73
2023-01-11T14:13:47.300Z,79.93
2023-01-11T14:16:25.818Z,80.60
2023-01-11T14:19:02.695Z,87.13
2023-01-11T14:21:39.380Z,85.57
2023-01-11T14:24:12.111Z,87.73
2023-01-11T14:27:07.345Z,80.03
2023-01-11T14:29:59.414Z,89.50
2023-01-11T14:32:51.285Z,86.93
2023-01-11T14:35:40.032Z,91.17
2023-01-11T14:38:44.206Z,80.70
2023-01-11T14:41:50.133Z,66.07
2023-01-11T14:44:47.173Z,65.57
2023-01-11T14:47:36.937Z,62.03
2023-01-11T14:50:28.519Z,58.30
2023-01-11T14:53:02.883Z,61.13
2023-01-11T14:55:36.066Z,66.13
2023-01-11T14:58:28.155Z,65.40
2023-01-11T15:01:11.972Z,68.23
2023-01-11T15:03:56.329Z,70.93
2023-01-11T15:06:25.997Z,65.50
2023-01-11T15:08:56.929Z,65.07
2023-01-11T15:11:38.940Z,76.33
2023-01-11T15:14:32.917Z,78.53
2023-01-11T15:17:21.306Z,83.17
2023-01-11T15:19:53.688Z,81.37
2023-01-11T15:22:27.455Z,82.53
2023-01-11T15:24:59.926Z,87.57
2023-01-11T15:27:33.994Z,92.67
2023-01-11T15:30:03.506Z,88.80
2023-01-11T15:32:34.513Z,87.63
2023-01-11T15:35:34.929Z,97.43
2023-01-11T15:38:15.037Z,92.83
2023-01-11T15:40:46.951Z,98.00
2023-01-11T15:43:49.329Z,92.37
2023-01-11T15:46:56.690Z,93.13
2023-01-11T15:50:14.600Z,91.77
2023-01-11T15:53:17.142Z,93.63
2023-01-11T15:56:18.485Z,117.77
2023-01-11T15:59:21.479Z,159.60
2023-01-11T16:02:22.661Z,126.03
2023-01-11T16:04:55.278Z,99.10
2023-01-11T16:07:32.527Z,89.20
2023-01-11T16:10:28.225Z,77.10
2023-01-11T16:13:15.790Z,70.43
2023-01-11T16:16:00.218Z,70.97
2023-01-11T16:18:35.331Z,64.33
2023-01-11T16:21:07.874Z,56.13
2023-01-11T16:23:37.458Z,61.10
2023-01-11T16:26:08.377Z,61.60
2023-01-11T16:28:41.625Z,78.97
2023-01-11T16:31:10.925Z,81.80
2023-01-11T16:33:40.266Z,102.13
2023-01-11T16:36:13.556Z,111.53
2023-01-11T16:38:56.896Z,118.17
2023-01-11T16:41:30.681Z,130.80
2023-01-11T16:44:04.287Z,126.67
2023-01-11T16:47:08.935Z,134.30
2023-01-11T16:49:38.606Z,108.97
2023-01-11T16:52:35.023Z,111.97
2023-01-11T16:55:13.967Z,101.13
2023-01-11T16:57:49.391Z,102.90
2023-01-11T17:00:29.130Z,137.37
2023-01-11T17:03:20.842Z,188.43
2023-01-11T17:06:19.658Z,169.07
2023-01-11T17:08:52.618Z,168.03
2023-01-11T17:11:34.471Z,169.70
2023-01-11T17:14:46.912Z,204.27
2023-01-11T17:17:16.481Z,203.03
2023-01-11T17:19:47.763Z,219.40
2023-01-11T17:22:21.999Z,235.07
2023-01-11T17:24:55.706Z,225.40
2023-01-11T17:27:29.586Z,224.97
2023-01-11T17:30:01.079Z,226.07
2023-01-11T17:32:37.256Z,231.90
2023-01-11T17:35:09.003Z,231.13
2023-01-11T17:37:38.227Z,245.33
2023-01-11T17:40:14.938Z,224.23
2023-01-11T17:43:02.044Z,225.20
2023-01-11T17:45:32.936Z,219.57
2023-01-11T17:48:13.383Z,204.37
2023-01-11T17:50:48.942Z,206.47
2023-01-11T17:53:22.563Z,201.13
2023-01-11T17:55:54.101Z,192.30
2023-01-11T17:58:27.663Z,168.83
2023-01-11T18:01:20.316Z,166.53
2023-01-11T18:03:51.259Z,166.00
2023-01-11T18:06:26.044Z,154.57
2023-01-11T18:08:57.314Z,150.60
2023-01-11T18:11:29.279Z,144.13
2023-01-11T18:14:01.386Z,132.17
2023-01-11T18:16:32.462Z,131.40
2023-01-11T18:19:01.855Z,119.77
2023-01-11T18:21:41.440Z,122.13
2023-01-11T18:24:43.508Z,109.70
2023-01-11T18:27:31.111Z,108.33
2023-01-11T18:30:03.052Z,106.20
2023-01-11T18:32:52.325Z,92.27
2023-01-11T18:35:21.338Z,91.30
2023-01-11T18:37:50.695Z,98.70
2023-01-11T18:40:21.829Z,89.43
2023-01-11T18:42:53.733Z,91.47
2023-01-11T18:45:25.430Z,92.73
2023-01-11T18:47:56.133Z,139.40
2023-01-11T18:50:25.987Z,138.10
2023-01-11T18:52:55.245Z,156.47
2023-01-11T18:55:24.276Z,147.50
2023-01-11T18:57:53.406Z,139.93
2023-01-11T19:00:22.761Z,142.93
2023-01-11T19:05:27.924Z,117.93
2023-01-11T19:07:57.272Z,107.07
2023-01-11T19:10:27.017Z,132.20
2023-01-11T19:12:57.796Z,149.60
2023-01-11T19:15:27.038Z,192.97
2023-01-11T19:17:57.304Z,233.57
2023-01-11T19:20:28.927Z,238.03
2023-01-11T19:22:58.357Z,274.13
2023-01-11T19:25:27.911Z,273.17
2023-01-11T19:27:57.449Z,271.23
2023-01-11T19:30:27.104Z,263.27
2023-01-11T19:32:56.486Z,259.50
2023-01-11T19:35:27.187Z,246.33
2023-01-11T19:37:57.070Z,228.73
2023-01-11T19:40:26.782Z,235.17
2023-01-11T19:42:55.833Z,190.37
2023-01-11T19:45:25.387Z,140.67
2023-01-11T19:47:55.109Z,93.80
2023-01-11T19:50:24.496Z,102.57
2023-01-11T19:52:55.462Z,94.30
2023-01-11T19:55:24.967Z,94.53
2023-01-11T19:57:54.272Z,70.03
2023-01-11T20:00:23.388Z,65.40
2023-01-11T20:02:52.509Z,63.93
2023-01-11T20:05:21.744Z,72.10
2023-01-11T20:07:51.005Z,70.40
2023-01-11T20:10:21.714Z,66.27
2023-01-11T20:12:50.721Z,71.10
2023-01-11T20:15:19.955Z,74.57
2023-01-11T20:17:49.001Z,82.67
2023-01-11T20:20:18.405Z,86.90
2023-01-11T20:22:47.538Z,93.80
2023-01-11T20:25:17.911Z,117.10
2023-01-11T20:27:48.532Z,159.60
2023-01-11T20:30:18.116Z,165.30
2023-01-11T20:32:47.313Z,169.23
2023-01-11T20:35:16.277Z,155.23
2023-01-11T20:37:45.178Z,153.70
2023-01-11T20:40:32.805Z,150.40
2023-01-11T20:43:03.373Z,157.73
2023-01-11T20:45:32.542Z,311.27
2023-01-11T20:48:01.811Z,259.37
2023-01-11T20:50:30.798Z,321.10
2023-01-11T20:53:00.610Z,399.27
2023-01-11T20:55:30.099Z,303.47
2023-01-11T20:57:59.480Z,144.90
2023-01-11T21:00:30.030Z,121.23
2023-01-11T21:02:59.162Z,100.07
2023-01-11T21:05:28.189Z,94.30
2023-01-11T21:07:57.155Z,91.97
2023-01-11T21:10:26.382Z,90.13
2023-01-11T21:12:56.770Z,91.03
2023-01-11T21:15:26.256Z,143.10
2023-01-11T21:17:56.930Z,133.37
2023-01-11T21:20:26.008Z,152.07
2023-01-11T21:22:55.060Z,159.10
2023-01-11T21:25:24.174Z,139.77
2023-01-11T21:27:53.204Z,141.87
2023-01-11T21:30:23.527Z,138.30
2023-01-11T21:32:52.857Z,131.80
2023-01-11T21:35:23.266Z,128.50
2023-01-11T21:37:52.454Z,121.40
2023-01-11T21:40:21.605Z,109.50
2023-01-11T21:42:50.604Z,89.70
2023-01-11T21:45:19.754Z,100.70
2023-01-11T21:47:48.697Z,106.67
2023-01-11T21:50:18.191Z,110.77
2023-01-11T21:52:48.777Z,110.93
2023-01-11T21:55:18.036Z,107.80
2023-01-11T21:57:47.061Z,99.10
2023-01-11T22:00:17.726Z,92.93
2023-01-11T22:02:46.859Z,95.20
2023-01-11T22:05:16.840Z,87.17
2023-01-11T22:07:47.781Z,90.23
2023-01-11T22:10:18.347Z,99.70
2023-01-11T22:12:47.787Z,100.80
2023-01-11T22:15:17.074Z,108.47
2023-01-11T22:17:46.513Z,110.93
2023-01-11T22:20:17.743Z,131.57
2023-01-11T22:22:48.183Z,129.07
2023-01-11T22:25:17.520Z,139.43
2023-01-11T22:27:46.368Z,115.23
2023-01-11T22:30:15.929Z,101.90
2023-01-11T22:32:44.964Z,91.47
2023-01-11T22:35:14.028Z,76.23
2023-01-11T22:37:43.312Z,63.33
2023-01-11T22:40:15.783Z,57.13
2023-01-11T22:42:45.232Z,58.83
2023-01-11T22:45:14.469Z,66.40
2023-01-11T22:47:43.536Z,69.30
2023-01-11T22:50:13.059Z,86.23
2023-01-11T22:52:42.310Z,86.90
2023-01-11T22:55:13.286Z,82.33
2023-01-11T22:57:42.477Z,99.33
2023-01-11T23:00:13.831Z,90.37
2023-01-11T23:02:43.020Z,88.17
2023-01-11T23:05:12.329Z,89.53
2023-01-11T23:07:41.527Z,93.57
2023-01-11T23:10:13.960Z,89.57
2023-01-11T23:13:00.131Z,91.83
2023-01-11T23:15:29.282Z,104.87
2023-01-11T23:17:58.490Z,116.17
2023-01-11T23:20:27.651Z,130.07
2023-01-11T23:22:56.821Z,138.73
2023-01-11T23:25:27.792Z,140.00
2023-01-11T23:27:57.776Z,139.93
2023-01-11T23:30:27.129Z,131.60
2023-01-11T23:32:56.359Z,134.10
2023-01-11T23:35:25.543Z,145.77
2023-01-11T23:37:56.380Z,145.43
2023-01-11T23:40:26.911Z,154.87
2023-01-11T23:42:55.191Z,161.80
2023-01-11T23:45:24.394Z,148.93
2023-01-11T23:47:52.405Z,133.90
2023-01-11T23:50:21.654Z,134.77
2023-01-11T23:52:50.793Z,135.67
2023-01-11T23:55:19.891Z,122.57
2023-01-11T23:58:09.458Z,113.30
